createdAt,value
2023-02-04T00:00:27.575Z,101774.56
2023-02-04T00:02:55.538Z,101739.22
2023-02-04T00:05:23.164Z,101762.28
2023-02-04T00:07:50.920Z,101731.38
2023-02-04T00:10:19.440Z,101634.94
2023-02-04T00:12:47.219Z,101756.09
2023-02-04T00:15:15.003Z,101744.84
2023-02-04T00:17:42.634Z,101691.50
2023-02-04T00:20:10.782Z,101682.66
2023-02-04T00:22:38.683Z,101648.50
2023-02-04T00:25:07.685Z,101724.66
2023-02-04T00:27:35.489Z,101712.81
2023-02-04T00:30:04.612Z,101695.28
2023-02-04T00:32:32.427Z,101697.00
2023-02-04T00:35:02.000Z,101701.75
2023-02-04T00:37:29.623Z,101737.34
2023-02-04T00:39:58.307Z,101691.91
2023-02-04T00:42:26.122Z,101722.34
2023-02-04T00:44:54.801Z,101720.44
2023-02-04T00:47:22.622Z,101726.91
2023-02-04T00:49:50.464Z,101671.28
2023-02-04T00:52:18.182Z,101656.59
2023-02-04T00:54:45.934Z,101681.50
2023-02-04T00:57:14.413Z,101566.84
2023-02-04T00:59:42.637Z,101702.66
2023-02-04T01:02:10.431Z,101700.19
2023-02-04T01:04:38.532Z,101705.47
2023-02-04T01:07:06.817Z,101706.00
2023-02-04T01:09:35.051Z,101669.53
2023-02-04T01:12:03.048Z,101683.00
2023-02-04T01:14:30.874Z,101690.00
2023-02-04T01:16:59.710Z,101659.56
2023-02-04T01:19:27.442Z,101689.63
2023-02-04T01:21:55.301Z,101655.94
2023-02-04T01:24:23.090Z,101658.84
2023-02-04T01:27:09.215Z,101640.66
2023-02-04T01:29:37.277Z,101686.97
2023-02-04T01:32:05.096Z,101645.00
2023-02-04T01:34:33.423Z,101674.41
2023-02-04T01:37:02.720Z,101681.53
2023-02-04T01:39:30.576Z,101669.97
2023-02-04T01:41:58.425Z,101678.22
2023-02-04T01:44:28.216Z,101629.47
2023-02-04T01:46:56.521Z,101625.66
2023-02-04T01:49:25.013Z,101684.75
2023-02-04T01:51:53.173Z,101648.09
2023-02-04T01:54:22.373Z,101671.41
2023-02-04T01:56:51.848Z,101677.66
2023-02-04T01:59:20.111Z,101657.19
2023-02-04T02:01:50.625Z,101641.63
2023-02-04T02:04:31.036Z,101668.44
2023-02-04T02:07:06.892Z,101665.41
2023-02-04T02:09:36.243Z,101669.47
2023-02-04T02:12:07.526Z,101667.88
2023-02-04T02:14:35.407Z,101638.63
2023-02-04T02:17:04.327Z,101643.31
2023-02-04T02:19:37.878Z,101608.56
2023-02-04T02:22:13.659Z,101590.78
2023-02-04T02:24:42.036Z,101619.75
2023-02-04T02:27:12.102Z,101637.22
2023-02-04T02:29:43.345Z,101660.81
2023-02-04T02:32:13.155Z,101663.53
2023-02-04T02:34:42.537Z,101656.38
2023-02-04T02:37:10.791Z,101633.06
2023-02-04T02:39:42.148Z,101660.19
2023-02-04T02:42:13.245Z,101615.50
2023-02-04T02:44:41.658Z,101651.16
2023-02-04T02:47:16.180Z,101642.91
2023-02-04T02:49:44.846Z,101651.97
2023-02-04T02:52:14.627Z,101611.41
2023-02-04T02:54:43.883Z,101649.66
2023-02-04T02:57:21.437Z,101661.53
2023-02-04T02:59:50.272Z,101660.19
2023-02-04T03:02:23.652Z,101661.00
2023-02-04T03:04:59.199Z,101611.16
2023-02-04T03:07:31.068Z,101646.03
2023-02-04T03:10:00.356Z,101642.59
2023-02-04T03:12:28.468Z,101598.91
2023-02-04T03:14:56.397Z,101590.41
2023-02-04T03:17:25.732Z,101619.41
2023-02-04T03:19:53.711Z,101549.63
2023-02-04T03:22:22.017Z,101577.47
2023-02-04T03:24:51.389Z,101643.75
2023-02-04T03:27:22.881Z,101571.69
2023-02-04T03:29:52.819Z,101612.13
2023-02-04T03:32:20.844Z,101653.31
2023-02-04T03:34:49.591Z,101536.25
2023-02-04T03:37:18.865Z,101637.34
2023-02-04T03:39:47.954Z,101587.88
2023-02-04T03:42:16.907Z,101666.56
2023-02-04T03:44:45.252Z,101655.94
2023-02-04T03:47:13.045Z,101632.38
2023-02-04T03:49:40.884Z,101642.41
2023-02-04T03:52:09.050Z,101610.16
2023-02-04T03:54:37.016Z,101656.19
2023-02-04T03:57:05.249Z,101665.16
2023-02-04T03:59:33.622Z,101607.50
2023-02-04T04:02:02.040Z,101659.69
2023-02-04T04:04:31.088Z,101647.84
2023-02-04T04:06:59.142Z,101628.16
2023-02-04T04:09:26.979Z,101648.47
2023-02-04T04:11:55.110Z,101651.44
2023-02-04T04:14:23.262Z,101624.56
2023-02-04T04:16:51.005Z,101634.66
2023-02-04T04:19:18.732Z,101648.88
2023-02-04T04:21:47.268Z,101647.16
2023-02-04T04:24:15.576Z,101624.78
2023-02-04T04:26:43.727Z,101638.81
2023-02-04T04:29:12.139Z,101644.06
2023-02-04T04:31:41.194Z,101627.16
2023-02-04T04:34:08.992Z,101624.34
2023-02-04T04:36:36.922Z,101601.69
2023-02-04T04:39:04.930Z,101628.53
2023-02-04T04:41:32.639Z,101613.69
2023-02-04T04:44:00.468Z,101586.03
2023-02-04T04:46:28.163Z,101615.38
2023-02-04T04:48:56.016Z,101611.94
2023-02-04T04:51:23.825Z,101615.22
2023-02-04T04:53:51.795Z,101569.50
2023-02-04T04:56:19.704Z,101563.00
2023-02-04T04:58:47.477Z,101467.34
2023-02-04T05:01:15.364Z,101608.00
2023-02-04T05:03:43.142Z,101519.19
2023-02-04T05:06:11.692Z,101586.25
2023-02-04T05:08:39.476Z,101606.09
2023-02-04T05:11:07.239Z,101599.28
2023-02-04T05:13:35.982Z,101574.63
2023-02-04T05:16:03.870Z,101596.59
2023-02-04T05:18:31.737Z,101577.75
2023-02-04T05:20:59.400Z,101481.25
2023-02-04T05:23:27.480Z,101568.31
2023-02-04T05:25:55.321Z,101526.78
2023-02-04T05:28:24.406Z,101589.88
2023-02-04T05:30:52.271Z,101583.13
2023-02-04T05:33:19.992Z,101553.06
2023-02-04T05:35:49.787Z,101587.06
2023-02-04T05:38:17.742Z,101560.22
2023-02-04T05:40:45.657Z,101482.38
2023-02-04T05:43:13.504Z,101549.31
2023-02-04T05:45:41.515Z,101584.38
2023-02-04T05:48:09.427Z,101576.78
2023-02-04T05:50:37.231Z,101492.59
2023-02-04T05:53:10.744Z,101541.78
2023-02-04T05:55:38.564Z,101576.78
2023-02-04T05:58:06.365Z,101580.09
2023-02-04T06:00:34.327Z,101522.16
2023-02-04T06:03:02.132Z,101569.16
2023-02-04T06:05:30.129Z,101509.41
2023-02-04T06:07:58.218Z,101519.47
2023-02-04T06:10:26.186Z,101580.28
2023-02-04T06:12:54.223Z,101580.31
2023-02-04T06:15:22.092Z,101507.09
2023-02-04T06:17:49.840Z,101510.06
2023-02-04T06:20:18.467Z,101575.47
2023-02-04T06:22:47.766Z,101541.59
2023-02-04T06:25:15.542Z,101571.69
2023-02-04T06:27:43.646Z,101549.75
2023-02-04T06:30:12.325Z,101583.56
2023-02-04T06:32:40.505Z,101550.56
2023-02-04T06:35:08.832Z,101524.94
2023-02-04T06:37:36.880Z,101556.41
2023-02-04T06:40:05.571Z,101564.63
2023-02-04T06:42:33.343Z,101552.84
2023-02-04T06:45:01.166Z,101534.25
2023-02-04T06:47:29.036Z,101561.06
2023-02-04T06:49:57.209Z,101562.97
2023-02-04T06:52:24.993Z,101510.47
2023-02-04T06:54:52.754Z,101551.44
2023-02-04T06:57:20.599Z,101452.50
2023-02-04T06:59:48.622Z,101534.72
2023-02-04T07:02:16.637Z,101500.34
2023-02-04T07:04:45.511Z,101570.56
2023-02-04T07:07:14.496Z,101558.88
2023-02-04T07:09:43.232Z,101475.44
2023-02-04T07:12:11.139Z,101572.50
2023-02-04T07:14:39.052Z,101549.56
2023-02-04T07:17:06.859Z,101570.72
2023-02-04T07:19:35.617Z,101530.22
2023-02-04T07:22:04.307Z,101579.97
2023-02-04T07:24:32.366Z,101576.66
2023-02-04T07:27:02.479Z,101582.88
2023-02-04T07:29:30.371Z,101587.78
2023-02-04T07:31:58.189Z,101564.53
2023-02-04T07:34:25.949Z,101533.13
2023-02-04T07:36:53.829Z,101566.56
2023-02-04T07:39:21.522Z,101580.50
2023-02-04T07:41:49.387Z,101503.09
2023-02-04T07:44:23.411Z,101603.97
2023-02-04T07:46:51.163Z,101554.78
2023-02-04T07:49:19.019Z,101605.06
2023-02-04T07:51:46.988Z,101601.00
2023-02-04T07:54:14.950Z,101593.66
2023-02-04T07:56:43.258Z,101545.06
2023-02-04T07:59:11.104Z,101564.56
2023-02-04T08:01:39.014Z,101570.59
2023-02-04T08:04:07.067Z,101599.81
2023-02-04T08:06:34.827Z,101587.03
2023-02-04T08:09:02.553Z,101588.34
2023-02-04T08:11:30.364Z,101586.41
2023-02-04T08:13:58.158Z,101532.97
2023-02-04T08:16:26.344Z,101466.22
2023-02-04T08:18:54.486Z,101547.91
2023-02-04T08:21:22.495Z,101531.25
2023-02-04T08:23:50.577Z,101555.03
2023-02-04T08:26:18.596Z,101522.00
2023-02-04T08:28:48.173Z,101540.34
2023-02-04T08:31:16.400Z,101496.63
2023-02-04T08:33:45.275Z,101554.06
2023-02-04T08:36:13.081Z,101485.34
2023-02-04T08:38:41.443Z,101514.31
2023-02-04T08:41:09.265Z,101521.94
2023-02-04T08:43:37.463Z,101500.16
2023-02-04T08:46:05.788Z,101544.97
2023-02-04T08:48:33.739Z,101538.34
2023-02-04T08:51:01.523Z,101531.59
2023-02-04T08:53:29.252Z,101492.25
2023-02-04T08:55:57.066Z,101484.69
2023-02-04T08:58:25.250Z,101564.03
2023-02-04T09:00:53.016Z,101555.38
2023-02-04T09:03:20.748Z,101490.63
2023-02-04T09:05:48.486Z,101469.91
2023-02-04T09:08:16.312Z,101495.59
2023-02-04T09:10:44.049Z,101497.03
2023-02-04T09:13:12.262Z,101559.09
2023-02-04T09:15:40.331Z,101517.91
2023-02-04T09:18:19.345Z,101553.09
2023-02-04T09:20:47.243Z,101493.84
2023-02-04T09:23:15.648Z,101564.78
2023-02-04T09:25:45.512Z,101568.59
2023-02-04T09:28:14.286Z,101568.59
2023-02-04T09:30:44.020Z,101574.31
2023-02-04T09:33:12.957Z,101573.28
2023-02-04T09:35:40.863Z,101579.31
2023-02-04T09:38:08.772Z,101543.47
2023-02-04T09:40:50.052Z,101586.34
2023-02-04T09:43:23.379Z,101560.94
2023-02-04T09:45:52.023Z,101571.50
2023-02-04T09:48:22.514Z,101582.16
2023-02-04T09:50:52.623Z,101577.75
2023-02-04T09:53:24.492Z,101578.91
2023-02-04T09:55:52.729Z,101509.53
2023-02-04T09:58:23.085Z,101544.44
2023-02-04T10:01:07.584Z,101574.88
2023-02-04T10:03:35.914Z,101511.53
2023-02-04T10:06:03.997Z,101520.50
2023-02-04T10:08:34.148Z,101562.63
2023-02-04T10:11:02.387Z,101564.28
2023-02-04T10:13:36.565Z,101529.09
2023-02-04T10:16:42.382Z,101502.88
2023-02-04T10:19:15.164Z,101560.22
2023-02-04T10:21:45.464Z,101508.09
2023-02-04T10:24:35.268Z,101520.13
2023-02-04T10:27:11.045Z,101545.25
2023-02-04T10:29:40.603Z,101553.41
2023-02-04T10:32:33.101Z,101514.03
2023-02-04T10:35:03.017Z,101539.75
2023-02-04T10:37:32.337Z,101500.19
2023-02-04T10:40:00.513Z,101542.50
2023-02-04T10:42:30.311Z,101539.25
2023-02-04T10:44:59.829Z,101537.06
2023-02-04T10:47:31.815Z,101546.63
2023-02-04T10:50:14.828Z,101557.53
2023-02-04T10:52:45.571Z,101519.03
2023-02-04T10:55:25.124Z,101552.63
2023-02-04T10:57:54.077Z,101541.44
2023-02-04T11:00:24.364Z,101537.66
2023-02-04T11:03:05.396Z,101538.75
2023-02-04T11:05:35.208Z,101487.75
2023-02-04T11:08:12.874Z,101530.03
2023-02-04T11:10:43.350Z,101525.69
2023-02-04T11:13:22.715Z,101479.31
2023-02-04T11:16:07.000Z,101506.63
2023-02-04T11:18:47.017Z,101508.25
2023-02-04T11:21:34.303Z,101507.97
2023-02-04T11:24:14.253Z,101496.81
2023-02-04T11:26:46.040Z,101497.91
2023-02-04T11:29:16.757Z,101494.09
2023-02-04T11:32:00.912Z,101491.94
2023-02-04T11:34:31.042Z,101481.88
2023-02-04T11:37:01.902Z,101476.16
2023-02-04T11:39:37.200Z,101459.53
2023-02-04T11:42:15.463Z,101469.63
2023-02-04T11:44:48.509Z,101449.13
2023-02-04T11:47:16.331Z,101461.44
2023-02-04T11:49:47.693Z,101437.75
2023-02-04T11:52:18.259Z,101372.28
2023-02-04T11:54:54.172Z,101439.09
2023-02-04T11:57:22.223Z,101394.44
2023-02-04T11:59:49.898Z,101442.13
2023-02-04T12:02:24.422Z,101432.59
2023-02-04T12:04:53.175Z,101437.50
2023-02-04T12:07:26.577Z,101383.53
2023-02-04T12:09:54.540Z,101357.94
2023-02-04T12:12:28.029Z,101418.44
2023-02-04T12:15:09.377Z,101355.78
2023-02-04T12:17:37.231Z,101389.84
2023-02-04T12:20:05.309Z,101338.34
2023-02-04T12:22:33.074Z,101394.47
2023-02-04T12:25:01.248Z,101367.22
2023-02-04T12:27:29.212Z,101284.13
2023-02-04T12:29:57.223Z,101302.38
2023-02-04T12:32:24.987Z,101347.91
2023-02-04T12:34:52.726Z,101318.75
2023-02-04T12:37:22.200Z,101397.47
2023-02-04T12:39:50.392Z,101317.13
2023-02-04T12:42:18.301Z,101352.81
2023-02-04T12:44:47.246Z,101276.53
2023-02-04T12:47:15.414Z,101387.69
2023-02-04T12:49:43.996Z,101371.09
2023-02-04T12:52:11.700Z,101331.03
2023-02-04T12:54:39.619Z,101359.63
2023-02-04T12:57:07.472Z,101319.59
2023-02-04T12:59:37.918Z,101297.81
2023-02-04T13:02:05.864Z,101309.53
2023-02-04T13:04:34.868Z,101352.56
2023-02-04T13:07:03.715Z,101320.97
2023-02-04T13:09:32.003Z,101314.97
2023-02-04T13:12:00.030Z,101284.50
2023-02-04T13:14:27.797Z,101344.41
2023-02-04T13:16:55.677Z,101342.22
2023-02-04T13:19:23.398Z,101315.53
2023-02-04T13:21:51.057Z,101273.06
2023-02-04T13:24:20.151Z,101280.69
2023-02-04T13:26:47.844Z,101316.88
2023-02-04T13:29:15.716Z,101317.44
2023-02-04T13:31:43.567Z,101293.47
2023-02-04T13:34:11.772Z,101300.28
2023-02-04T13:36:40.189Z,101330.50
2023-02-04T13:39:08.007Z,101274.16
2023-02-04T13:41:36.347Z,101303.53
2023-02-04T13:44:04.976Z,101335.97
2023-02-04T13:46:33.752Z,101262.69
2023-02-04T13:49:01.823Z,101310.34
2023-02-04T13:51:30.809Z,101280.13
2023-02-04T13:54:00.635Z,101280.13
2023-02-04T13:56:28.871Z,101326.97
2023-02-04T13:58:56.847Z,101311.44
2023-02-04T14:01:24.778Z,101204.50
2023-02-04T14:03:52.656Z,101259.69
2023-02-04T14:06:22.157Z,101294.28
2023-02-04T14:08:50.024Z,101326.91
2023-02-04T14:11:17.910Z,101329.06
2023-02-04T14:13:45.726Z,101276.31
2023-02-04T14:16:13.569Z,101332.91
2023-02-04T14:18:41.409Z,101325.28
2023-02-04T14:21:09.233Z,101206.06
2023-02-04T14:23:38.311Z,101340.53
2023-02-04T14:26:06.216Z,101293.72
2023-02-04T14:28:34.020Z,101334.81
2023-02-04T14:31:02.559Z,101280.94
2023-02-04T14:33:30.359Z,101292.38
2023-02-04T14:35:58.267Z,101338.91
2023-02-04T14:38:31.145Z,101233.84
2023-02-04T14:41:01.682Z,101340.28
2023-02-04T14:43:29.494Z,101240.13
2023-02-04T14:45:58.671Z,101318.25
2023-02-04T14:48:26.442Z,101279.03
2023-02-04T14:50:54.283Z,101306.81
2023-02-04T14:53:22.374Z,101339.22
2023-02-04T14:55:50.238Z,101266.53
2023-02-04T14:58:19.448Z,101275.25
2023-02-04T15:00:47.873Z,101290.75
2023-02-04T15:03:15.677Z,101291.84
2023-02-04T15:05:43.557Z,101327.22
2023-02-04T15:08:11.328Z,101241.22
2023-02-04T15:10:39.142Z,101283.94
2023-02-04T15:13:07.579Z,101279.59
2023-02-04T15:15:35.354Z,101274.16
2023-02-04T15:18:03.300Z,101303.28
2023-02-04T15:20:31.459Z,101289.69
2023-02-04T15:23:00.754Z,101260.53
2023-02-04T15:25:28.874Z,101349.84
2023-02-04T15:27:58.831Z,101316.88
2023-02-04T15:30:26.651Z,101300.84
2023-02-04T15:32:55.647Z,101334.59
2023-02-04T15:35:24.611Z,101221.06
2023-02-04T15:37:52.477Z,101249.38
2023-02-04T15:40:22.817Z,101339.47
2023-02-04T15:42:51.017Z,101290.19
2023-02-04T15:45:18.880Z,101355.00
2023-02-04T15:47:47.182Z,101288.03
2023-02-04T15:50:16.233Z,101312.50
2023-02-04T15:52:44.102Z,101305.97
2023-02-04T15:55:13.578Z,101362.34
2023-02-04T15:57:41.436Z,101334.59
2023-02-04T16:00:10.362Z,101362.88
2023-02-04T16:02:38.391Z,101357.75
2023-02-04T16:05:07.820Z,101374.59
2023-02-04T16:07:35.814Z,101339.47
2023-02-04T16:10:04.514Z,101364.00
2023-02-04T16:12:32.774Z,101317.69
2023-02-04T16:15:00.780Z,101326.16
2023-02-04T16:17:28.593Z,101310.09
2023-02-04T16:19:57.117Z,101384.94
2023-02-04T16:22:25.024Z,101382.75
2023-02-04T16:24:53.152Z,101282.31
2023-02-04T16:27:21.058Z,101395.81
2023-02-04T16:29:49.047Z,101354.44
2023-02-04T16:32:16.809Z,101380.31
2023-02-04T16:34:44.981Z,101386.28
2023-02-04T16:37:13.359Z,101368.91
2023-02-04T16:39:44.872Z,101379.53
2023-02-04T16:42:13.168Z,101405.94
2023-02-04T16:44:41.378Z,101396.13
2023-02-04T16:47:10.537Z,101399.66
2023-02-04T16:49:38.457Z,101347.13
2023-02-04T16:52:09.719Z,101399.38
2023-02-04T16:54:37.469Z,101378.69
2023-02-04T16:57:05.240Z,101326.41
2023-02-04T16:59:33.136Z,101405.66
2023-02-04T17:02:01.286Z,101383.88
2023-02-04T17:04:30.613Z,101425.56
2023-02-04T17:07:00.545Z,101394.50
2023-02-04T17:09:28.838Z,101413.56
2023-02-04T17:11:56.748Z,101415.22
2023-02-04T17:14:25.039Z,101406.78
2023-02-04T17:16:52.871Z,101356.13
2023-02-04T17:19:21.407Z,101372.19
2023-02-04T17:21:49.541Z,101340.06
2023-02-04T17:24:17.216Z,101347.94
2023-02-04T17:26:45.061Z,101386.88
2023-02-04T17:29:17.464Z,101419.81
2023-02-04T17:31:46.227Z,101350.41
2023-02-04T17:34:14.145Z,101409.19
2023-02-04T17:36:42.488Z,101327.22
2023-02-04T17:39:11.795Z,101363.72
2023-02-04T17:41:40.682Z,101400.75
2023-02-04T17:44:08.679Z,101407.31
2023-02-04T17:46:36.746Z,101400.47
2023-02-04T17:49:06.688Z,101420.66
2023-02-04T17:51:35.296Z,101420.66
2023-02-04T17:54:03.107Z,101386.06
2023-02-04T17:56:31.683Z,101431.56
2023-02-04T17:58:59.492Z,101413.56
2023-02-04T18:01:27.401Z,101404.31
2023-02-04T18:03:55.525Z,101374.38
2023-02-04T18:06:30.069Z,101411.41
2023-02-04T18:09:02.394Z,101416.31
2023-02-04T18:11:36.215Z,101429.94
2023-02-04T18:14:17.644Z,101435.38
2023-02-04T18:16:46.025Z,101435.38
2023-02-04T18:19:31.649Z,101431.56
2023-02-04T18:21:59.604Z,101407.63
2023-02-04T18:24:48.941Z,101384.72
2023-02-04T18:27:21.136Z,101421.50
2023-02-04T18:29:53.500Z,101326.44
2023-02-04T18:32:35.198Z,101413.59
2023-02-04T18:35:19.931Z,101435.09
2023-02-04T18:37:50.010Z,101424.19
2023-02-04T18:40:30.800Z,101425.00
2023-02-04T18:43:14.028Z,101368.41
2023-02-04T18:45:42.324Z,101354.44
2023-02-04T18:48:16.427Z,101426.41
2023-02-04T18:50:44.841Z,101410.59
2023-02-04T18:53:12.690Z,101425.03
2023-02-04T18:55:42.124Z,101422.28
2023-02-04T18:58:34.261Z,101419.03
2023-02-04T19:01:17.263Z,101411.69
2023-02-04T19:03:56.376Z,101429.66
2023-02-04T19:06:38.688Z,101420.94
2023-02-04T19:09:17.284Z,101419.56
2023-02-04T19:11:47.996Z,101356.94
2023-02-04T19:14:35.892Z,101418.50
2023-02-04T19:17:27.428Z,101427.22
2023-02-04T19:20:18.690Z,101416.06
2023-02-04T19:22:52.956Z,101393.97
2023-02-04T19:25:33.403Z,101418.50
2023-02-04T19:28:14.561Z,101414.94
2023-02-04T19:30:46.732Z,101407.06
2023-02-04T19:33:25.923Z,101391.25
2023-02-04T19:35:54.970Z,101424.47
2023-02-04T19:38:41.057Z,101412.50
2023-02-04T19:41:48.598Z,101414.69
2023-02-04T19:44:35.147Z,101414.69
2023-02-04T19:47:23.623Z,101398.88
2023-02-04T19:49:55.844Z,101404.31
2023-02-04T19:52:37.532Z,101404.88
2023-02-04T19:55:17.890Z,101422.56
2023-02-04T19:57:50.479Z,101429.41
2023-02-04T20:00:42.560Z,101405.69
2023-02-04T20:03:26.514Z,101430.50
2023-02-04T20:05:59.728Z,101385.28
2023-02-04T20:08:44.663Z,101446.28
2023-02-04T20:11:26.265Z,101409.25
2023-02-04T20:14:01.540Z,101382.25
2023-02-04T20:16:41.274Z,101443.56
2023-02-04T20:19:25.464Z,101453.38
2023-02-04T20:22:20.764Z,101440.06
2023-02-04T20:24:49.977Z,101453.13
2023-02-04T20:27:35.632Z,101446.84
2023-02-04T20:30:11.827Z,101462.13
2023-02-04T20:32:48.035Z,101412.22
2023-02-04T20:35:17.800Z,101461.84
2023-02-04T20:37:51.864Z,101345.16
2023-02-04T20:40:22.694Z,101480.09
2023-02-04T20:42:54.880Z,101425.56
2023-02-04T20:45:22.806Z,101480.66
2023-02-04T20:48:15.999Z,101494.81
2023-02-04T20:50:48.152Z,101502.44
2023-02-04T20:53:38.585Z,101504.59
2023-02-04T20:56:29.754Z,101516.63
2023-02-04T20:59:18.325Z,101527.50
2023-02-04T21:01:48.948Z,101523.69
2023-02-04T21:04:33.212Z,101516.53
2023-02-04T21:07:08.466Z,101516.25
2023-02-04T21:09:37.681Z,101535.06
2023-02-04T21:12:08.244Z,101571.09
2023-02-04T21:14:36.240Z,101575.44
2023-02-04T21:17:04.690Z,101586.09
2023-02-04T21:19:34.021Z,101514.56
2023-02-04T21:22:02.157Z,101559.84
2023-02-04T21:24:32.135Z,101538.31
2023-02-04T21:27:00.189Z,101580.63
2023-02-04T21:29:28.206Z,101569.94
2023-02-04T21:31:56.037Z,101530.88
2023-02-04T21:34:24.786Z,101592.28
2023-02-04T21:36:52.661Z,101572.59
2023-02-04T21:39:20.983Z,101576.41
2023-02-04T21:42:08.572Z,101599.06
2023-02-04T21:44:36.879Z,101596.34
2023-02-04T21:47:04.790Z,101602.03
2023-02-04T21:49:32.853Z,101593.63
2023-02-04T21:52:03.352Z,101480.09
2023-02-04T21:54:31.022Z,101585.19
2023-02-04T21:57:02.279Z,101592.81
2023-02-04T21:59:33.589Z,101527.56
2023-02-04T22:02:01.440Z,101519.13
2023-02-04T22:04:29.434Z,101510.63
2023-02-04T22:06:57.070Z,101575.91
2023-02-04T22:09:24.988Z,101512.56
2023-02-04T22:11:52.876Z,101571.19
2023-02-04T22:14:21.874Z,101580.75
2023-02-04T22:16:49.565Z,101597.41
2023-02-04T22:19:19.730Z,101582.97
2023-02-04T22:21:47.433Z,101525.63
2023-02-04T22:24:15.143Z,101566.56
2023-02-04T22:26:44.276Z,101595.81
2023-02-04T22:29:11.932Z,101548.84
2023-02-04T22:31:39.690Z,101599.31
2023-02-04T22:34:08.618Z,101606.16
2023-02-04T22:36:36.659Z,101610.78
2023-02-04T22:39:04.490Z,101545.00
2023-02-04T22:41:32.333Z,101615.97
2023-02-04T22:44:00.104Z,101560.56
2023-02-04T22:46:29.967Z,101542.78
2023-02-04T22:48:58.290Z,101627.94
2023-02-04T22:51:26.156Z,101571.16
2023-02-04T22:53:53.920Z,101632.31
2023-02-04T22:56:21.671Z,101565.44
2023-02-04T22:58:50.543Z,101610.47
2023-02-04T23:01:19.400Z,101629.31
2023-02-04T23:03:48.945Z,101601.97
2023-02-04T23:06:16.831Z,101560.75
2023-02-04T23:08:44.877Z,101630.09
2023-02-04T23:11:12.702Z,101567.00
2023-02-04T23:13:40.409Z,101639.94
2023-02-04T23:16:08.179Z,101529.25
2023-02-04T23:18:36.159Z,101650.00
2023-02-04T23:21:05.536Z,101652.97
2023-02-04T23:23:33.709Z,101652.69
2023-02-04T23:26:03.405Z,101632.50
2023-02-04T23:28:32.358Z,101654.06
2023-02-04T23:31:00.381Z,101639.56
2023-02-04T23:33:30.231Z,101541.19
2023-02-04T23:35:58.137Z,101646.91
2023-02-04T23:38:26.084Z,101666.31
2023-02-04T23:41:00.346Z,101658.97
2023-02-04T23:43:30.308Z,101673.13
2023-02-04T23:46:00.241Z,101646.13
2023-02-04T23:48:29.418Z,101667.91
2023-02-04T23:50:58.182Z,101555.44
2023-02-04T23:53:25.926Z,101622.53
2023-02-04T23:55:54.079Z,101645.81
2023-02-04T23:58:21.839Z,101641.09
